createdAt,value
2023-04-03T00:01:07.161Z,5.90
2023-04-03T00:06:31.473Z,5.20
2023-04-03T00:11:56.199Z,6.10
2023-04-03T00:17:20.044Z,6.20
2023-04-03T00:22:44.047Z,8.90
2023-04-03T00:28:08.699Z,4.20
2023-04-03T00:33:32.510Z,6.80
2023-04-03T00:38:57.062Z,5.20
2023-04-03T00:44:47.941Z,4.30
2023-04-03T00:50:11.936Z,2.20
2023-04-03T00:55:38.266Z,4.00
2023-04-03T01:01:07.174Z,4.10
2023-04-03T01:06:37.797Z,3.00
2023-04-03T01:12:20.672Z,4.80
2023-04-03T01:17:49.355Z,2.60
2023-04-03T01:23:25.689Z,4.80
2023-04-03T01:28:50.605Z,3.10
2023-04-03T01:34:14.443Z,5.30
2023-04-03T01:39:38.160Z,5.00
2023-04-03T01:45:02.579Z,3.20
2023-04-03T01:50:27.870Z,4.80
2023-04-03T01:55:51.795Z,5.40
2023-04-03T02:01:16.579Z,3.10
2023-04-03T02:06:40.964Z,12.80
2023-04-03T02:12:05.279Z,4.00
2023-04-03T02:17:30.569Z,5.80
2023-04-03T02:22:56.070Z,2.20
2023-04-03T02:28:19.950Z,5.70
2023-04-03T02:33:43.848Z,6.00
2023-04-03T02:39:10.013Z,6.10
2023-04-03T02:44:34.317Z,7.40
2023-04-03T02:49:59.046Z,3.40
2023-04-03T02:55:23.815Z,3.20
2023-04-03T03:00:48.567Z,4.90
2023-04-03T03:06:14.860Z,3.00
2023-04-03T03:11:38.735Z,2.70
2023-04-03T03:17:02.517Z,3.00
2023-04-03T03:22:28.240Z,5.10
2023-04-03T03:27:52.795Z,8.20
2023-04-03T03:33:17.222Z,7.20
2023-04-03T03:38:41.307Z,3.30
2023-04-03T03:44:06.330Z,4.30
2023-04-03T03:49:30.713Z,3.10
2023-04-03T03:54:55.330Z,3.90
2023-04-03T04:00:20.349Z,3.90
2023-04-03T04:05:46.403Z,3.20
2023-04-03T04:11:11.544Z,8.00
2023-04-03T04:16:36.962Z,4.20
2023-04-03T04:22:05.844Z,6.70
2023-04-03T04:27:30.875Z,3.30
2023-04-03T04:32:57.430Z,2.50
2023-04-03T04:38:21.968Z,5.40
2023-04-03T04:43:48.239Z,2.70
2023-04-03T04:49:12.892Z,5.90
2023-04-03T04:54:37.106Z,7.10
2023-04-03T05:00:01.770Z,1.70
2023-04-03T05:05:27.437Z,3.10
2023-04-03T05:10:53.684Z,4.90
2023-04-03T05:16:19.362Z,8.30
2023-04-03T05:21:44.342Z,6.00
2023-04-03T05:27:10.495Z,5.30
2023-04-03T05:32:36.499Z,5.60
2023-04-03T05:38:10.161Z,11.80
2023-04-03T05:43:38.985Z,5.90
2023-04-03T05:49:04.344Z,6.50
2023-04-03T05:54:31.842Z,8.60
2023-04-03T06:00:15.727Z,6.20
2023-04-03T06:05:43.087Z,6.20
2023-04-03T06:11:10.103Z,4.20
2023-04-03T06:16:35.782Z,5.00
2023-04-03T06:22:01.540Z,6.40
2023-04-03T06:27:25.636Z,3.40
2023-04-03T06:32:50.150Z,5.30
2023-04-03T06:38:15.133Z,5.80
2023-04-03T06:43:39.707Z,2.80
2023-04-03T06:49:03.799Z,3.00
2023-04-03T06:54:28.352Z,4.80
2023-04-03T06:59:53.002Z,3.60
2023-04-03T07:05:17.888Z,4.70
2023-04-03T07:10:41.999Z,10.40
2023-04-03T07:16:07.964Z,5.70
2023-04-03T07:21:33.537Z,6.10
2023-04-03T07:26:57.623Z,2.70
2023-04-03T07:32:21.766Z,6.70
2023-04-03T07:37:46.350Z,9.30
2023-04-03T07:43:11.084Z,22.30
2023-04-03T07:48:36.665Z,17.30
2023-04-03T07:54:01.098Z,25.30
2023-04-03T07:59:26.094Z,34.50
2023-04-03T08:04:50.181Z,4.90
2023-04-03T08:10:14.681Z,3.00
2023-04-03T08:15:39.421Z,3.90
2023-04-03T08:21:07.905Z,4.20
2023-04-03T08:26:32.505Z,3.60
2023-04-03T08:31:56.648Z,1.40
2023-04-03T08:37:21.013Z,3.00
2023-04-03T08:43:19.396Z,3.80
2023-04-03T08:48:45.312Z,3.40
2023-04-03T08:54:38.490Z,4.30
2023-04-03T09:00:09.276Z,2.60
2023-04-03T09:06:07.745Z,3.60
2023-04-03T09:11:50.954Z,3.90
2023-04-03T09:22:49.612Z,4.30
2023-04-03T09:28:17.122Z,4.10
2023-04-03T09:33:42.529Z,5.40
2023-04-03T09:39:12.297Z,6.00
2023-04-03T09:44:39.137Z,1.80
2023-04-03T09:50:16.800Z,4.20
2023-04-03T09:55:52.508Z,4.30
2023-04-03T10:01:30.908Z,2.80
2023-04-03T10:06:56.879Z,3.60
2023-04-03T10:12:22.783Z,5.60
2023-04-03T10:18:21.658Z,2.30
2023-04-03T10:23:59.786Z,2.90
2023-04-03T10:29:50.066Z,2.40
2023-04-03T10:35:18.087Z,5.00
2023-04-03T10:40:50.230Z,3.50
2023-04-03T10:46:18.836Z,3.10
2023-04-03T10:52:08.490Z,3.60
2023-04-03T10:57:36.153Z,4.80
2023-04-03T11:03:05.397Z,4.00
2023-04-03T11:08:58.057Z,5.70
2023-04-03T11:14:38.789Z,2.10
2023-04-03T11:20:20.217Z,4.50
2023-04-03T11:25:45.923Z,2.90
2023-04-03T11:31:30.531Z,5.20
2023-04-03T11:36:58.333Z,6.50
2023-04-03T11:42:31.945Z,4.00
2023-04-03T11:48:20.963Z,4.30
2023-04-03T11:53:49.402Z,3.20
2023-04-03T11:59:14.918Z,3.30
2023-04-03T12:04:39.623Z,4.40
2023-04-03T12:10:30.434Z,3.30
2023-04-03T12:15:56.099Z,6.40
2023-04-03T12:21:23.059Z,3.00
2023-04-03T12:27:10.165Z,4.30
2023-04-03T12:33:19.589Z,5.10
2023-04-03T12:38:53.318Z,4.90
2023-04-03T12:44:36.367Z,3.00
2023-04-03T12:50:05.461Z,1.90
2023-04-03T12:55:29.483Z,3.40
2023-04-03T13:01:13.782Z,6.00
2023-04-03T13:06:44.032Z,3.80
2023-04-03T13:12:17.010Z,4.60
2023-04-03T13:17:43.120Z,2.10
2023-04-03T13:23:10.511Z,3.70
2023-04-03T13:28:35.594Z,2.60
2023-04-03T13:34:12.374Z,4.10
2023-04-03T13:39:44.660Z,3.50
2023-04-03T13:45:22.051Z,3.60
2023-04-03T13:51:04.099Z,6.50
2023-04-03T13:56:38.963Z,3.40
2023-04-03T14:02:03.084Z,4.90
2023-04-03T14:07:28.035Z,5.10
2023-04-03T14:12:52.427Z,4.90
2023-04-03T14:18:22.935Z,3.50
2023-04-03T14:23:48.011Z,4.40
2023-04-03T14:29:14.423Z,4.60
2023-04-03T14:34:38.558Z,5.00
2023-04-03T14:40:24.814Z,4.40
2023-04-03T14:46:07.298Z,3.70
2023-04-03T14:51:49.207Z,4.60
2023-04-03T14:57:32.084Z,5.00
2023-04-03T15:03:16.967Z,5.10
2023-04-03T15:08:43.519Z,3.30
2023-04-03T15:14:09.618Z,10.90
2023-04-03T15:19:40.841Z,10.20
2023-04-03T15:25:05.120Z,4.90
2023-04-03T15:30:29.825Z,7.30
2023-04-03T15:36:02.695Z,10.70
2023-04-03T15:41:31.474Z,11.40
2023-04-03T15:46:55.883Z,6.20
2023-04-03T15:52:20.144Z,6.40
2023-04-03T15:57:43.843Z,6.70
2023-04-03T16:03:14.410Z,6.60
2023-04-03T16:08:39.265Z,4.40
2023-04-03T16:14:03.454Z,4.10
2023-04-03T16:19:28.066Z,2.50
2023-04-03T16:24:52.772Z,8.60
2023-04-03T16:30:16.935Z,6.60
2023-04-03T16:35:43.660Z,4.20
2023-04-03T16:41:08.256Z,3.00
2023-04-03T16:46:32.561Z,2.80
2023-04-03T16:51:56.976Z,7.30
2023-04-03T16:57:22.065Z,7.30
2023-04-03T17:02:46.774Z,14.90
2023-04-03T17:08:11.629Z,16.60
2023-04-03T17:13:37.315Z,13.70
2023-04-03T17:19:01.647Z,11.10
2023-04-03T17:24:26.165Z,12.80
2023-04-03T17:30:00.250Z,14.10
2023-04-03T17:35:31.296Z,9.30
2023-04-03T17:41:04.901Z,17.90
2023-04-03T17:46:31.459Z,11.60
2023-04-03T17:51:58.202Z,11.20
2023-04-03T17:57:22.753Z,15.50
2023-04-03T18:02:46.666Z,15.00
2023-04-03T18:08:11.073Z,20.50
2023-04-03T18:13:39.651Z,20.50
2023-04-03T18:24:36.259Z,14.20
2023-04-03T18:30:07.911Z,13.00
2023-04-03T18:35:32.134Z,15.90
2023-04-03T18:40:57.026Z,23.40
2023-04-03T18:46:21.744Z,17.00
2023-04-03T18:51:47.586Z,21.50
2023-04-03T18:57:13.002Z,15.50
2023-04-03T19:02:38.098Z,9.00
2023-04-03T19:08:02.701Z,11.20
2023-04-03T19:13:28.356Z,17.10
2023-04-03T19:18:53.030Z,12.60
2023-04-03T19:24:18.977Z,10.30
2023-04-03T19:29:43.501Z,19.40
2023-04-03T19:35:08.211Z,15.10
2023-04-03T19:40:33.806Z,14.60
2023-04-03T19:46:00.736Z,13.10
2023-04-03T19:51:25.588Z,20.70
2023-04-03T19:56:51.107Z,10.10
2023-04-03T20:02:15.327Z,10.90
2023-04-03T20:07:39.951Z,10.80
2023-04-03T20:13:04.642Z,11.10
2023-04-03T20:18:29.073Z,20.30
2023-04-03T20:24:16.531Z,22.30
2023-04-03T20:29:42.482Z,19.60
2023-04-03T20:35:06.890Z,16.20
2023-04-03T20:40:31.940Z,12.60
2023-04-03T20:45:55.924Z,10.10
2023-04-03T20:51:21.352Z,13.90
2023-04-03T20:56:50.214Z,19.10
2023-04-03T21:02:16.851Z,10.10
2023-04-03T21:08:18.464Z,6.90
2023-04-03T21:14:20.417Z,6.10
2023-04-03T21:19:48.994Z,5.80
2023-04-03T21:25:13.640Z,6.40
2023-04-03T21:30:38.293Z,4.10
2023-04-03T21:36:04.177Z,5.20
2023-04-03T21:41:28.443Z,6.60
2023-04-03T21:46:55.530Z,5.70
2023-04-03T21:52:19.678Z,14.20
2023-04-03T21:57:43.948Z,10.20
2023-04-03T22:03:10.744Z,9.20
2023-04-03T22:08:36.651Z,8.60
2023-04-03T22:14:01.241Z,8.20
2023-04-03T22:19:25.693Z,11.60
2023-04-03T22:24:50.258Z,9.20
2023-04-03T22:30:14.509Z,9.90
2023-04-03T22:35:49.226Z,10.10
2023-04-03T22:41:14.351Z,17.40
2023-04-03T22:46:38.655Z,12.00
2023-04-03T22:52:02.830Z,9.70
2023-04-03T22:57:27.175Z,7.00
2023-04-03T23:02:51.222Z,6.20
2023-04-03T23:08:16.274Z,6.60
2023-04-03T23:13:41.176Z,7.40
2023-04-03T23:19:05.298Z,9.30
2023-04-03T23:24:29.710Z,4.60
2023-04-03T23:29:54.056Z,6.00
2023-04-03T23:35:18.336Z,5.50
2023-04-03T23:40:43.451Z,5.40
2023-04-03T23:46:08.197Z,5.20
2023-04-03T23:51:32.043Z,7.20
2023-04-03T23:56:56.916Z,7.30
